Main page
Satellite images 15-day forecastsClimateMarine weather Cyclones Lightning AirportsFAQ Newsletter About
Weather : Europe Africa North America South America Asia Australia-Oceania Others
Languages Contact

Mexicali, Mexico

General Rodolfo Sánchez Taboada

latitude: 32-37-50N, longitude: 115-14-30W, elevation: 22 m


METAR: MMML 271343Z RTD 00000KT 10SM SKC 27/10 A2993 RMK RTS
short-TAF: out of date (49981 hours)
long-TAF: MMML 270422Z 2706/2806 18005KT P6SM SCT250 FM271600 16010KT P6SM SCT250 FM280300 18005KT P6SM SCT250

Time: 09:53 (14:53 UTC)

Current weather observation

The report was made 1 hour and 9 minutes ago, at 13:43 UTC  
Wind calm
Temperature 27°C
Humidity 34%
Pressure 1014 hPa
Visibility 16.1 km
Clear sky

Change units

Forecast

The report was made 10 hours and 24 minutes ago, at 04:29 UTC  
Forecast valid from 27 at 06 UTC to 28 at 06 UTC
Wind 05 kt from the South
Visibility 10 km
Scattered clouds at a height of 25000 ft
From 27 at 1600 UTC
Wind 10 kt from the South/Southeast
Visibility 10 km
Scattered clouds at a height of 25000 ft
From 28 at 0300 UTC
Wind 05 kt from the South
Visibility 10 km
Scattered clouds at a height of 25000 ft
The information on this site is subject to a disclaimer
Weather : Europe Africa North America South America Asia Australia-Oceania Others
Satellite images 15-day forecastsClimateMarine weather Cyclones Lightning AirportsFAQ Languages Contact Newsletter About